Time;durP1;ratioP1;P1;durP2;ratioP2;P2;SDS_P1;SDS_P2;PMS_P1;PMS_P2;Temp;Humidity;BMP_temperature;BMP_pressure;BME280_temperature;BME280_humidity;BME280_pressure;Samples;Min_cycle;Max_cycle;Signal;HPM_P1;HPM_P2
2022/03/12 00:01:01;;;;;;;17.85;12.48;;;;;;;-0.84;95.04;93026.22;2098135;28;20464;-80
2022/03/12 00:02:03;;;;;;;17.20;11.75;;;;;;;-0.88;96.00;93024.63;2098697;28;20504;-81
2022/03/12 00:03:05;;;;;;;18.63;12.20;;;;;;;-0.82;96.00;93020.66;2098178;28;20090;-81
2022/03/12 00:04:06;;;;;;;19.63;12.82;;;;;;;-0.76;96.09;93024.50;2106715;28;20487;-82
2022/03/12 00:05:08;;;;;;;16.50;12.00;;;;;;;-0.67;96.32;93030.28;2106443;28;20583;-81
2022/03/12 00:06:09;;;;;;;19.20;12.15;;;;;;;-0.60;97.18;93027.06;2106832;28;20059;-80
2022/03/12 00:07:11;;;;;;;19.05;12.88;;;;;;;-0.63;97.21;93033.75;2102460;28;20020;-82
2022/03/12 00:08:12;;;;;;;17.73;12.45;;;;;;;-0.62;97.88;93031.88;2106618;28;20362;-81
2022/03/12 00:09:13;;;;;;;16.77;12.57;;;;;;;-0.78;99.07;93034.59;2106534;28;20024;-81
2022/03/12 00:10:14;;;;;;;21.05;13.30;;;;;;;-0.79;99.21;93039.09;2105739;28;20832;-82
2022/03/12 00:11:20;;;;;;;16.50;12.18;;;;;;;-0.72;98.43;93038.44;2098008;28;20028;-82
2022/03/12 00:12:22;;;;;;;15.88;11.90;;;;;;;-0.73;97.78;93039.56;2094105;28;20043;-82
2022/03/12 00:13:22;;;;;;;17.27;12.45;;;;;;;-0.91;97.81;93046.34;2106829;27;20028;-82
2022/03/12 00:14:24;;;;;;;18.30;11.93;;;;;;;-0.87;99.28;93040.06;2106453;28;20024;-82
2022/03/12 00:15:25;;;;;;;19.88;12.70;;;;;;;-0.83;98.73;93035.63;2094758;28;20036;-81
2022/03/12 00:16:27;;;;;;;19.60;12.45;;;;;;;-0.79;97.07;93035.69;2097967;28;20075;-82
2022/03/12 00:17:29;;;;;;;21.85;12.82;;;;;;;-0.86;97.44;93043.44;2098171;28;20032;-82
2022/03/12 00:18:31;;;;;;;19.20;12.40;;;;;;;-0.95;98.14;93041.00;2097981;28;20101;-82
2022/03/12 00:19:32;;;;;;;18.52;12.40;;;;;;;-0.81;97.22;93045.78;2089952;28;20156;-81
2022/03/12 00:20:33;;;;;;;20.17;13.23;;;;;;;-0.74;97.34;93040.69;2089951;28;20021;-81
2022/03/12 00:21:35;;;;;;;17.48;12.50;;;;;;;-0.83;96.15;93042.75;2089749;28;20418;-81
2022/03/12 00:22:37;;;;;;;21.85;13.05;;;;;;;-0.86;96.47;93051.31;2090168;28;20048;-82
2022/03/12 00:23:42;;;;;;;17.83;12.18;;;;;;;-1.02;96.48;93044.25;2106159;28;20027;-81
2022/03/12 00:24:44;;;;;;;20.88;12.73;;;;;;;-0.92;97.34;93042.97;2097557;28;20460;-81
2022/03/12 00:25:49;;;;;;;19.08;12.55;;;;;;;-0.73;96.70;93046.69;2081623;28;20066;-81
2022/03/12 00:26:50;;;;;;;21.88;14.02;;;;;;;-0.77;97.23;93043.97;2090776;28;20031;-82
2022/03/12 00:27:51;;;;;;;18.73;13.18;;;;;;;-0.86;97.29;93046.81;2098150;28;20020;-82
2022/03/12 00:28:54;;;;;;;19.33;12.13;;;;;;;-0.84;97.50;93054.31;2106226;28;20414;-81
2022/03/12 00:29:55;;;;;;;19.48;11.80;;;;;;;-0.75;96.62;93054.88;2106586;28;20028;-81
2022/03/12 00:30:56;;;;;;;17.42;12.43;;;;;;;-0.72;96.47;93056.06;2097851;28;20028;-82
2022/03/12 00:31:57;;;;;;;17.65;12.98;;;;;;;-0.67;95.56;93053.91;2097871;28;20460;-82
2022/03/12 00:32:58;;;;;;;19.55;12.55;;;;;;;-0.78;94.39;93060.84;2097838;28;20050;-81
2022/03/12 00:34:00;;;;;;;17.25;12.63;;;;;;;-0.82;96.62;93057.38;2106255;28;20036;-82
2022/03/12 00:35:01;;;;;;;16.25;11.75;;;;;;;-0.90;97.19;93058.34;2098000;28;20020;-82
2022/03/12 00:36:03;;;;;;;19.65;12.20;;;;;;;-0.98;96.92;93065.31;2097752;28;20032;-82
2022/03/12 00:37:04;;;;;;;18.95;12.32;;;;;;;-1.02;98.26;93064.47;2105983;28;20028;-80
2022/03/12 00:38:05;;;;;;;20.30;12.40;;;;;;;-1.00;97.37;93054.41;2112559;28;20110;-81
2022/03/12 00:39:08;;;;;;;17.90;12.70;;;;;;;-0.89;98.45;93063.22;2114649;28;20015;-81
2022/03/12 00:40:10;;;;;;;20.80;12.05;;;;;;;-0.83;99.45;93059.25;2106629;28;20098;-81
2022/03/12 00:41:12;;;;;;;20.23;12.63;;;;;;;-0.78;98.82;93060.84;2106158;28;20518;-81
2022/03/12 00:42:15;;;;;;;19.75;12.52;;;;;;;-0.78;100.00;93058.97;2114890;28;20075;-80
2022/03/12 00:43:18;;;;;;;19.08;13.18;;;;;;;-0.83;99.43;93056.63;2098035;28;20368;-79
2022/03/12 00:44:20;;;;;;;21.58;12.88;;;;;;;-0.80;99.11;93049.91;2090452;28;20430;-83
2022/03/12 00:45:22;;;;;;;21.40;12.88;;;;;;;-0.71;98.09;93049.72;2089624;28;20070;-81
2022/03/12 00:46:23;;;;;;;22.73;12.55;;;;;;;-0.72;99.58;93048.94;2098177;28;20805;-80
2022/03/12 00:47:26;;;;;;;19.83;12.52;;;;;;;-0.77;99.65;93052.63;2097753;28;20064;-80
2022/03/12 00:48:27;;;;;;;20.40;12.70;;;;;;;-0.85;99.42;93058.81;2089471;28;20493;-83
2022/03/12 00:49:28;;;;;;;17.08;12.25;;;;;;;-0.84;99.33;93047.22;2106030;28;20052;-82
2022/03/12 00:50:29;;;;;;;20.35;12.27;;;;;;;-0.80;99.88;93055.91;2114669;28;20020;-80
2022/03/12 00:51:30;;;;;;;19.40;12.77;;;;;;;-0.69;100.00;93047.50;2113824;28;20031;-82
2022/03/12 00:52:31;;;;;;;17.65;12.30;;;;;;;-0.76;100.00;93054.13;2108161;28;20472;-82
2022/03/12 00:53:33;;;;;;;17.40;11.70;;;;;;;-0.84;100.00;93056.94;2098020;28;20075;-81
2022/03/12 00:54:36;;;;;;;23.95;11.98;;;;;;;-0.90;100.00;93043.34;2097746;28;20151;-81
2022/03/12 00:55:37;;;;;;;17.08;11.40;;;;;;;-0.85;100.00;93053.56;2100234;28;20024;-81
2022/03/12 00:56:39;;;;;;;16.27;11.50;;;;;;;-0.74;100.00;93045.94;2097679;28;20484;-81
2022/03/12 00:57:40;;;;;;;18.58;11.82;;;;;;;-0.80;100.00;93058.53;2089718;28;20569;-82
2022/03/12 00:58:45;;;;;;;19.88;12.15;;;;;;;-0.86;100.00;93059.19;2089481;28;20032;-82
2022/03/12 00:59:46;;;;;;;15.73;11.70;;;;;;;-0.88;100.00;93056.13;2082336;28;20056;-80
2022/03/12 01:00:48;;;;;;;19.67;12.80;;;;;;;-0.81;100.00;93053.66;2084962;28;20025;-82
2022/03/12 01:01:50;;;;;;;20.83;13.43;;;;;;;-0.77;100.00;93052.63;2089692;28;20017;-81
2022/03/12 01:02:52;;;;;;;18.08;12.18;;;;;;;-0.83;100.00;93058.50;2089639;28;20140;-82
2022/03/12 01:03:53;;;;;;;17.70;12.48;;;;;;;-0.91;100.00;93056.81;2090047;28;20028;-82
2022/03/12 01:04:54;;;;;;;19.95;13.15;;;;;;;-0.93;100.00;93059.03;2089499;28;20021;-81
2022/03/12 01:05:55;;;;;;;17.83;12.25;;;;;;;-0.98;100.00;93059.31;2097699;28;20032;-81
2022/03/12 01:06:56;;;;;;;19.80;12.70;;;;;;;-0.99;100.00;93065.66;2105753;28;20036;-80
2022/03/12 01:07:57;;;;;;;19.73;12.48;;;;;;;-0.91;100.00;93062.84;2106001;28;20031;-82
2022/03/12 01:08:58;;;;;;;22.52;12.15;;;;;;;-0.78;100.00;93063.47;2097681;28;20028;-80
2022/03/12 01:09:59;;;;;;;18.27;12.38;;;;;;;-0.86;100.00;93059.19;2089532;28;20071;-80
2022/03/12 01:11:04;;;;;;;16.25;12.00;;;;;;;-0.84;100.00;93062.97;2097649;28;20063;-82
2022/03/12 01:12:07;;;;;;;18.15;12.65;;;;;;;-0.89;100.00;93062.47;2097317;28;20138;-81
2022/03/12 01:13:08;;;;;;;18.25;12.95;;;;;;;-0.85;100.00;93058.06;2106182;28;20042;-82
2022/03/12 01:14:09;;;;;;;23.08;12.63;;;;;;;-0.92;100.00;93058.69;2105859;28;20109;-80
2022/03/12 01:15:11;;;;;;;21.90;13.02;;;;;;;-0.86;100.00;93059.19;2100472;28;20148;-80
2022/03/12 01:16:12;;;;;;;16.52;11.77;;;;;;;-0.66;100.00;93055.47;2097463;28;20107;-79
2022/03/12 01:17:14;;;;;;;20.08;12.80;;;;;;;-0.73;99.54;93057.19;2089259;28;20021;-79
2022/03/12 01:18:21;;;;;;;17.45;12.35;;;;;;;-0.86;100.00;93054.69;2105978;28;20028;-80
2022/03/12 01:19:22;;;;;;;17.10;12.00;;;;;;;-0.82;100.00;93058.13;2097509;28;20033;-80
2022/03/12 01:20:23;;;;;;;17.98;12.18;;;;;;;-0.90;100.00;93059.09;2081166;28;20064;-80
2022/03/12 01:21:24;;;;;;;19.63;13.38;;;;;;;-0.92;100.00;93061.31;2093923;28;20033;-80
2022/03/12 01:22:26;;;;;;;17.42;12.13;;;;;;;-0.89;100.00;93060.63;2097531;28;20032;-78
2022/03/12 01:23:27;;;;;;;18.35;12.00;;;;;;;-0.87;100.00;93057.66;2106026;28;20050;-80
2022/03/12 01:24:29;;;;;;;18.45;12.75;;;;;;;-0.91;100.00;93054.22;2113803;28;20408;-78
2022/03/12 01:25:30;;;;;;;19.88;13.43;;;;;;;-0.95;100.00;93062.00;2114247;28;20420;-79
2022/03/12 01:26:34;;;;;;;17.85;13.35;;;;;;;-0.94;100.00;93058.25;2105733;28;20095;-79
2022/03/12 01:27:35;;;;;;;19.02;13.10;;;;;;;-0.91;100.00;93054.97;2090260;28;20040;-79
2022/03/12 01:28:36;;;;;;;20.60;12.93;;;;;;;-0.85;100.00;93056.19;2097535;28;20028;-82
2022/03/12 01:29:37;;;;;;;20.52;13.65;;;;;;;-0.90;100.00;93055.72;2097527;28;20070;-82
2022/03/12 01:30:41;;;;;;;17.90;12.23;;;;;;;-0.86;100.00;93057.31;2097671;28;20433;-81
2022/03/12 01:31:42;;;;;;;21.00;12.63;;;;;;;-0.88;100.00;93056.13;2098205;28;20779;-81
2022/03/12 01:32:43;;;;;;;19.75;13.45;;;;;;;-0.93;100.00;93054.53;2105853;28;20028;-81
2022/03/12 01:34:03;;;;;;;19.35;13.13;;;;;;;-1.00;100.00;93056.28;2114235;28;20027;-82
2022/03/12 01:35:05;;;;;;;22.13;12.57;;;;;;;-1.03;100.00;93062.94;2105888;28;20032;-81
2022/03/12 01:36:07;;;;;;;19.25;12.73;;;;;;;-0.99;100.00;93061.16;2099589;28;20307;-78
2022/03/12 01:37:08;;;;;;;22.75;14.32;;;;;;;-1.00;100.00;93059.66;2095107;28;20155;-79
2022/03/12 01:38:09;;;;;;;20.63;12.90;;;;;;;-0.99;100.00;93065.66;2089386;28;20103;-79
2022/03/12 01:39:10;;;;;;;18.73;13.65;;;;;;;-0.98;100.00;93067.94;2092098;28;20016;-80
2022/03/12 01:40:11;;;;;;;20.15;13.07;;;;;;;-1.00;100.00;93075.38;2097488;28;20449;-79
2022/03/12 01:41:14;;;;;;;19.13;12.32;;;;;;;-0.93;100.00;93069.50;2097342;28;20418;-80
2022/03/12 01:42:19;;;;;;;19.45;13.07;;;;;;;-0.99;100.00;93071.66;2097386;28;20036;-80
2022/03/12 01:43:21;;;;;;;19.05;13.30;;;;;;;-0.97;100.00;93066.06;2098148;28;20689;-78
2022/03/12 01:44:23;;;;;;;19.00;12.82;;;;;;;-0.92;100.00;93073.66;2097344;28;20047;-79
2022/03/12 01:45:27;;;;;;;23.45;13.05;;;;;;;-0.90;100.00;93071.47;2089202;28;20068;-79
2022/03/12 01:46:37;;;;;;;21.55;13.48;;;;;;;-0.88;100.00;93075.28;2105638;28;20511;-80
2022/03/12 01:47:38;;;;;;;21.85;14.40;;;;;;;-0.89;100.00;93075.59;2106053;28;20024;-78
2022/03/12 01:48:46;;;;;;;18.52;12.68;;;;;;;-0.88;100.00;93070.03;2105349;28;20055;-80
2022/03/12 01:49:49;;;;;;;19.00;13.18;;;;;;;-0.93;100.00;93074.75;2106783;28;20028;-80
2022/03/12 01:50:50;;;;;;;19.73;13.20;;;;;;;-0.91;100.00;93075.94;2114159;28;20082;-80
2022/03/12 01:51:54;;;;;;;19.15;12.90;;;;;;;-0.93;100.00;93074.75;2114057;28;20035;-80
2022/03/12 01:52:59;;;;;;;19.42;13.45;;;;;;;-0.95;100.00;93069.88;2097693;28;20145;-78
2022/03/12 01:54:02;;;;;;;22.77;13.88;;;;;;;-0.92;100.00;93078.91;2098522;28;20026;-79
2022/03/12 01:55:06;;;;;;;20.70;14.75;;;;;;;-0.84;100.00;93076.06;2097673;28;20036;-80
2022/03/12 01:56:07;;;;;;;21.60;13.55;;;;;;;-0.82;99.90;93070.50;2097972;28;20394;-80
2022/03/12 01:57:11;;;;;;;20.52;14.27;;;;;;;-0.73;99.22;93078.94;2097343;28;20081;-78
2022/03/12 01:58:12;;;;;;;25.58;13.90;;;;;;;-0.72;98.42;93072.56;2098295;28;20351;-79
2022/03/12 01:59:14;;;;;;;17.55;12.98;;;;;;;-0.68;96.68;93075.28;2097293;28;20032;-78
2022/03/12 02:00:23;;;;;;;20.25;13.73;;;;;;;-0.74;97.85;93077.41;2088636;28;20087;-79
2022/03/12 02:01:28;;;;;;;21.00;13.90;;;;;;;-0.71;97.26;93079.34;2091371;28;20036;-78
2022/03/12 02:02:29;;;;;;;21.58;14.35;;;;;;;-0.72;96.38;93074.44;2097880;28;20035;-80
2022/03/12 02:03:31;;;;;;;18.02;13.48;;;;;;;-0.79;98.40;93070.59;2100019;28;20017;-80
2022/03/12 02:04:32;;;;;;;22.60;14.73;;;;;;;-0.84;100.00;93075.31;2097327;28;20059;-78
2022/03/12 02:05:34;;;;;;;20.13;13.43;;;;;;;-0.82;100.00;93073.88;2105743;28;20028;-79
2022/03/12 02:06:45;;;;;;;20.67;14.15;;;;;;;-0.81;100.00;93072.00;2105425;28;20111;-79
2022/03/12 02:07:46;;;;;;;19.60;13.95;;;;;;;-0.61;99.18;93076.16;2098507;28;20020;-80
2022/03/12 02:08:57;;;;;;;18.58;13.73;;;;;;;-0.62;98.71;93072.00;2097595;28;20443;-79
2022/03/12 02:11:55;;;;;;;;;;;;;;;-0.28;94.21;93069.63;2147945;27;20125;-79
2022/03/12 02:12:56;;;;;;;17.40;11.88;;;;;;;-0.31;94.27;93072.94;2138375;27;19934;-80
2022/03/12 02:14:09;;;;;;;21.38;13.68;;;;;;;-0.47;94.89;93077.53;2128702;27;20466;-78
2022/03/12 02:15:09;;;;;;;23.30;14.18;;;;;;;-0.59;95.98;93076.56;2107610;28;20020;-79
2022/03/12 02:16:10;;;;;;;22.15;14.18;;;;;;;-0.60;95.77;93082.94;2104459;28;20512;-79
2022/03/12 02:17:11;;;;;;;19.92;14.02;;;;;;;-0.47;96.16;93075.69;2112742;28;20020;-80
2022/03/12 02:18:14;;;;;;;22.90;15.10;;;;;;;-0.57;95.93;93073.59;2121412;28;20027;-78
2022/03/12 02:19:17;;;;;;;23.88;15.25;;;;;;;-0.61;97.23;93078.03;2121351;28;20162;-80
2022/03/12 02:20:20;;;;;;;22.13;14.27;;;;;;;-0.55;96.30;93072.16;2108910;27;20032;-79
2022/03/12 02:21:34;;;;;;;20.23;13.93;;;;;;;-0.47;94.90;93078.31;2116963;28;20022;-79
2022/03/12 02:22:35;;;;;;;22.55;14.40;;;;;;;-0.36;93.84;93070.63;2112771;28;20150;-79
2022/03/12 02:23:47;;;;;;;21.15;14.63;;;;;;;-0.44;94.99;93068.97;2096014;28;20025;-79
2022/03/12 02:24:48;;;;;;;20.92;14.07;;;;;;;-0.51;95.32;93067.72;2098913;28;20074;-78
2022/03/12 02:25:49;;;;;;;21.77;13.95;;;;;;;-0.59;97.70;93071.31;2096062;28;20467;-80
2022/03/12 02:26:51;;;;;;;23.23;13.82;;;;;;;-0.22;95.07;93063.00;2104519;28;20066;-79
2022/03/12 02:27:52;;;;;;;21.48;13.93;;;;;;;-0.41;93.99;93063.78;2113355;27;20026;-80
2022/03/12 02:28:53;;;;;;;20.90;14.25;;;;;;;-0.49;95.32;93069.25;2112697;28;20502;-80
2022/03/12 02:29:58;;;;;;;22.25;14.20;;;;;;;-0.47;95.61;93061.78;2121210;27;20015;-79
2022/03/12 02:30:59;;;;;;;21.48;14.32;;;;;;;-0.45;95.87;93070.06;2130218;27;20034;-81
2022/03/12 02:32:09;;;;;;;21.33;13.85;;;;;;;-0.51;96.53;93051.97;2129598;27;20023;-78
2022/03/12 02:33:13;;;;;;;21.70;14.75;;;;;;;-0.52;98.31;93055.72;2132471;27;20019;-79
2022/03/12 02:34:19;;;;;;;20.13;13.60;;;;;;;-0.54;100.00;93065.03;2129827;27;20109;-79
2022/03/12 02:35:24;;;;;;;23.55;14.30;;;;;;;-0.59;98.33;93062.69;2122747;27;20035;-80
2022/03/12 02:36:27;;;;;;;19.75;14.38;;;;;;;-0.61;96.75;93065.69;2124665;27;20027;-79
2022/03/12 02:37:32;;;;;;;20.30;13.90;;;;;;;-0.52;97.57;93057.59;2114835;28;20046;-80
2022/03/12 02:38:35;;;;;;;20.75;13.63;;;;;;;-0.42;97.00;93053.63;2113593;28;20072;-78
2022/03/12 02:39:38;;;;;;;24.42;15.27;;;;;;;-0.42;96.73;93053.63;2112896;28;20024;-80
2022/03/12 02:40:41;;;;;;;20.58;14.15;;;;;;;-0.49;97.18;93050.88;2113170;28;20027;-81
2022/03/12 02:41:42;;;;;;;21.10;14.00;;;;;;;-0.50;98.64;93050.13;2127927;27;20039;-80
2022/03/12 02:42:44;;;;;;;23.65;14.63;;;;;;;-0.38;97.59;93054.47;2113346;28;20067;-79
2022/03/12 02:43:46;;;;;;;22.88;14.15;;;;;;;-0.45;96.89;93055.06;2104297;28;20020;-80
2022/03/12 02:44:49;;;;;;;19.45;13.82;;;;;;;-0.46;97.67;93058.81;2104209;28;20412;-79
2022/03/12 02:45:51;;;;;;;22.27;14.82;;;;;;;-0.46;97.05;93064.06;2121323;27;20015;-77
2022/03/12 02:47:13;;;;;;;22.20;13.75;;;;;;;-0.48;99.76;93057.63;2120841;28;20032;-80
2022/03/12 02:48:15;;;;;;;20.15;13.60;;;;;;;-0.46;100.00;93060.69;2101229;28;20131;-80
2022/03/12 02:49:16;;;;;;;19.33;13.60;;;;;;;-0.48;100.00;93063.66;2096149;28;20423;-79
2022/03/12 02:50:18;;;;;;;19.63;13.23;;;;;;;-0.30;100.00;93066.63;2112110;27;20069;-80
2022/03/12 02:51:25;;;;;;;19.20;12.77;;;;;;;-0.18;100.00;93055.16;2121300;27;20120;-80
2022/03/12 02:52:28;;;;;;;19.50;12.25;;;;;;;-0.18;100.00;93063.06;2130471;27;20048;-79
2022/03/12 02:53:30;;;;;;;21.08;11.88;;;;;;;-0.18;100.00;93058.56;2129701;27;20026;-79
2022/03/12 02:54:31;;;;;;;19.17;12.65;;;;;;;-0.28;100.00;93051.25;2130135;27;20023;-79
2022/03/12 02:55:34;;;;;;;19.17;12.82;;;;;;;-0.31;100.00;93062.44;2138278;27;20135;-79
2022/03/12 02:56:35;;;;;;;20.98;13.02;;;;;;;-0.33;100.00;93062.06;2121119;27;20022;-79
2022/03/12 02:57:37;;;;;;;18.35;12.50;;;;;;;-0.37;100.00;93067.22;2112651;28;20024;-79
2022/03/12 02:58:38;;;;;;;19.38;12.40;;;;;;;-0.39;100.00;93055.56;2110051;28;20077;-79
2022/03/12 02:59:43;;;;;;;17.33;11.68;;;;;;;-0.37;100.00;93058.59;2104188;28;20484;-79
2022/03/12 03:00:44;;;;;;;19.45;13.07;;;;;;;-0.24;100.00;93054.72;2096402;28;20099;-81
2022/03/12 03:01:45;;;;;;;20.92;13.13;;;;;;;-0.33;100.00;93049.69;2111390;27;20016;-79
2022/03/12 03:02:53;;;;;;;19.20;12.65;;;;;;;-0.35;100.00;93059.78;2108484;28;20026;-80
2022/03/12 03:03:55;;;;;;;23.30;12.25;;;;;;;-0.33;100.00;93062.81;2104941;28;20141;-80
2022/03/12 03:04:57;;;;;;;20.73;12.45;;;;;;;-0.36;100.00;93055.63;2096068;28;20032;-79
2022/03/12 03:05:58;;;;;;;18.88;13.35;;;;;;;-0.36;100.00;93060.09;2095894;28;20016;-79
2022/03/12 03:07:00;;;;;;;18.92;13.80;;;;;;;-0.39;100.00;93051.06;2097598;28;20023;-79
2022/03/12 03:08:05;;;;;;;18.30;12.90;;;;;;;-0.31;100.00;93052.72;2104130;28;20024;-79
2022/03/12 03:09:06;;;;;;;21.05;13.45;;;;;;;-0.29;100.00;93055.75;2104059;28;20052;-79
2022/03/12 03:10:09;;;;;;;21.55;13.90;;;;;;;-0.32;100.00;93058.31;2100753;27;20033;-80
2022/03/12 03:11:13;;;;;;;18.70;13.13;;;;;;;-0.37;100.00;93067.22;2120861;27;20031;-81
2022/03/12 03:12:14;;;;;;;22.88;13.05;;;;;;;-0.41;100.00;93068.28;2120777;27;20490;-80
2022/03/12 03:13:19;;;;;;;21.58;12.73;;;;;;;-0.47;100.00;93080.19;2112858;28;20069;-79
2022/03/12 03:14:26;;;;;;;20.48;12.70;;;;;;;-0.37;100.00;93071.72;2112223;28;20490;-80
2022/03/12 03:15:28;;;;;;;19.65;13.18;;;;;;;-0.25;99.81;93068.94;2096508;28;20029;-78
2022/03/12 03:16:31;;;;;;;21.30;14.00;;;;;;;-0.23;98.59;93065.97;2104114;28;20491;-79
2022/03/12 03:17:34;;;;;;;18.33;13.00;;;;;;;-0.34;98.63;93065.78;2110657;27;20028;-80
2022/03/12 03:18:38;;;;;;;22.90;13.07;;;;;;;-0.26;97.83;93064.81;2121218;27;20027;-79
2022/03/12 03:19:40;;;;;;;21.95;15.38;;;;;;;-0.39;98.12;93068.69;2112786;28;20027;-80
2022/03/12 03:20:45;;;;;;;19.48;14.07;;;;;;;-0.42;99.06;93066.75;2112542;28;20412;-79
2022/03/12 03:21:46;;;;;;;22.23;14.27;;;;;;;-0.45;99.22;93067.44;2105504;28;20557;-80
2022/03/12 03:22:47;;;;;;;19.95;13.85;;;;;;;-0.45;99.64;93067.44;2101413;28;20021;-79
2022/03/12 03:23:48;;;;;;;22.73;12.60;;;;;;;-0.50;100.00;93065.88;2098094;28;20032;-78
2022/03/12 03:24:49;;;;;;;19.67;13.70;;;;;;;-0.49;100.00;93066.63;2081788;28;20033;-80
2022/03/12 03:25:50;;;;;;;20.48;13.98;;;;;;;-0.54;100.00;93068.41;2090046;28;20147;-80
2022/03/12 03:26:54;;;;;;;21.80;14.60;;;;;;;-0.43;100.00;93065.25;2098407;28;20067;-79
2022/03/12 03:27:55;;;;;;;20.20;14.05;;;;;;;-0.41;100.00;93071.66;2098682;28;20051;-78
2022/03/12 03:28:58;;;;;;;18.75;13.38;;;;;;;-0.44;100.00;93071.59;2108579;28;20027;-80
2022/03/12 03:29:59;;;;;;;24.67;13.57;;;;;;;-0.44;100.00;93068.97;2101217;28;20021;-79
2022/03/12 03:31:02;;;;;;;19.38;13.43;;;;;;;-0.13;100.00;93068.00;2101121;28;20520;-79
2022/03/12 03:32:04;;;;;;;18.70;12.85;;;;;;;-0.08;99.13;93063.25;2104952;28;20492;-79
2022/03/12 03:33:10;;;;;;;18.02;13.38;;;;;;;-0.15;99.36;93065.75;2100402;28;20020;-80
2022/03/12 03:34:11;;;;;;;20.13;13.32;;;;;;;-0.22;99.94;93064.84;2107408;28;20500;-78
2022/03/12 03:35:12;;;;;;;17.95;12.57;;;;;;;-0.32;100.00;93066.94;2099174;28;20032;-80
2022/03/12 03:36:13;;;;;;;20.83;13.02;;;;;;;-0.33;100.00;93067.31;2089311;28;20102;-79
2022/03/12 03:37:15;;;;;;;19.88;13.30;;;;;;;-0.34;100.00;93060.53;2090344;28;20469;-79
2022/03/12 03:38:17;;;;;;;19.70;12.75;;;;;;;-0.35;100.00;93064.25;2102296;28;20111;-79
2022/03/12 03:39:18;;;;;;;17.83;12.50;;;;;;;-0.36;100.00;93073.25;2097489;28;20093;-79
2022/03/12 03:40:19;;;;;;;21.00;13.93;;;;;;;-0.36;100.00;93078.50;2101823;28;20035;-80
2022/03/12 03:41:20;;;;;;;18.27;12.93;;;;;;;-0.40;100.00;93070.53;2114977;28;20024;-80
2022/03/12 03:42:21;;;;;;;20.98;12.73;;;;;;;-0.39;100.00;93077.34;2106607;28;20066;-79
2022/03/12 03:43:23;;;;;;;17.42;12.60;;;;;;;-0.42;100.00;93072.00;2098228;28;20101;-79
2022/03/12 03:44:29;;;;;;;18.58;12.68;;;;;;;-0.35;100.00;93062.41;2098607;28;20017;-79
2022/03/12 03:45:30;;;;;;;18.65;12.30;;;;;;;-0.25;100.00;93068.94;2099417;28;20107;-79
2022/03/12 03:46:32;;;;;;;20.80;13.60;;;;;;;0.01;100.00;93065.66;2100497;28;20059;-79
2022/03/12 03:47:33;;;;;;;17.90;13.10;;;;;;;-0.09;100.00;93069.63;2089848;28;20103;-79
2022/03/12 03:48:38;;;;;;;18.42;13.20;;;;;;;-0.06;100.00;93079.41;2089482;28;20021;-79
2022/03/12 03:49:39;;;;;;;17.98;12.90;;;;;;;-0.10;100.00;93068.09;2090298;28;20025;-79
2022/03/12 03:50:42;;;;;;;22.08;13.38;;;;;;;-0.12;100.00;93069.56;2090112;28;20082;-80
2022/03/12 03:51:44;;;;;;;19.08;13.13;;;;;;;-0.15;100.00;93073.63;2097987;28;20401;-80
2022/03/12 03:52:52;;;;;;;18.83;11.35;;;;;;;-0.09;100.00;93069.63;2105415;28;20565;-80
2022/03/12 03:54:00;;;;;;;19.13;13.10;;;;;;;-0.08;100.00;93071.13;2107492;28;20024;-80
2022/03/12 03:55:03;;;;;;;19.80;12.38;;;;;;;-0.11;100.00;93066.56;2107480;28;20103;-79
2022/03/12 03:56:05;;;;;;;18.88;12.75;;;;;;;-0.09;100.00;93066.22;2098969;28;20028;-80
2022/03/12 03:57:06;;;;;;;20.55;13.07;;;;;;;-0.02;100.00;93072.34;2095733;28;20505;-81
2022/03/12 03:58:07;;;;;;;20.67;12.32;;;;;;;0.03;100.00;93068.69;2104791;28;20075;-80
2022/03/12 03:59:07;;;;;;;17.15;12.75;;;;;;;0.13;100.00;93075.22;2106597;28;20464;-78
2022/03/12 04:00:10;;;;;;;20.98;13.15;;;;;;;0.04;100.00;93072.81;2097669;28;20017;-81
2022/03/12 04:01:16;;;;;;;17.45;12.48;;;;;;;0.04;100.00;93067.56;2098439;28;20031;-80
2022/03/12 04:02:17;;;;;;;17.30;11.82;;;;;;;0.06;100.00;93072.47;2099213;28;20025;-79
2022/03/12 04:03:19;;;;;;;18.75;11.88;;;;;;;0.13;100.00;93064.69;2098145;28;20176;-79
2022/03/12 04:04:20;;;;;;;18.77;12.00;;;;;;;0.13;100.00;93073.38;2090537;27;20091;-78
2022/03/12 04:05:22;;;;;;;16.60;12.27;;;;;;;0.12;100.00;93071.06;2114873;27;20030;-80
2022/03/12 04:06:24;;;;;;;21.77;12.77;;;;;;;0.13;100.00;93069.97;2106389;28;20062;-79
2022/03/12 04:07:25;;;;;;;21.15;12.70;;;;;;;0.07;100.00;93071.38;2093026;28;20025;-80
2022/03/12 04:08:27;;;;;;;18.20;12.27;;;;;;;0.05;100.00;93065.72;2098040;28;20025;-78
2022/03/12 04:09:29;;;;;;;18.17;12.50;;;;;;;0.06;100.00;93067.97;2097976;28;20465;-79
2022/03/12 04:10:30;;;;;;;16.77;11.88;;;;;;;0.10;100.00;93068.06;2090079;28;20071;-80
2022/03/12 04:11:33;;;;;;;20.85;12.80;;;;;;;0.12;100.00;93069.19;2084573;28;20510;-79
2022/03/12 04:12:34;;;;;;;17.73;13.05;;;;;;;0.10;100.00;93073.31;2081840;28;20090;-79
2022/03/12 04:13:36;;;;;;;20.23;13.20;;;;;;;0.04;100.00;93077.31;2089882;28;20017;-80
2022/03/12 04:14:37;;;;;;;18.83;13.25;;;;;;;0.11;100.00;93077.44;2089956;28;20021;-77
2022/03/12 04:15:40;;;;;;;18.25;11.90;;;;;;;0.20;100.00;93072.72;2098014;28;20074;-79
2022/03/12 04:16:43;;;;;;;20.17;11.88;;;;;;;0.20;100.00;93080.59;2097869;28;20075;-80
2022/03/12 04:17:45;;;;;;;20.52;12.73;;;;;;;0.14;100.00;93080.13;2113253;28;20272;-79
2022/03/12 04:18:47;;;;;;;17.45;12.30;;;;;;;0.19;100.00;93076.47;2114724;28;20027;-79
2022/03/12 04:19:48;;;;;;;16.85;12.00;;;;;;;0.36;100.00;93078.63;2106197;28;20430;-78
2022/03/12 04:20:51;;;;;;;16.95;12.35;;;;;;;0.33;99.34;93075.91;2098317;28;20021;-79
2022/03/12 04:21:53;;;;;;;21.40;12.23;;;;;;;0.23;98.82;93080.66;2106600;28;20012;-78
2022/03/12 04:22:54;;;;;;;19.00;12.95;;;;;;;0.20;100.00;93080.59;2106256;28;20024;-80
2022/03/12 04:23:55;;;;;;;20.23;12.80;;;;;;;0.16;100.00;93077.91;2097343;28;20090;-79
2022/03/12 04:24:56;;;;;;;22.60;11.65;;;;;;;0.18;100.00;93078.31;2097888;28;20073;-78
2022/03/12 04:25:58;;;;;;;17.70;12.20;;;;;;;0.18;99.47;93088.09;2097982;28;20178;-79
2022/03/12 04:27:00;;;;;;;16.80;12.13;;;;;;;0.13;100.00;93080.47;2106403;28;20020;-78
2022/03/12 04:28:02;;;;;;;16.85;11.65;;;;;;;0.18;100.00;93082.81;2106342;28;20091;-79
2022/03/12 04:29:08;;;;;;;21.67;12.43;;;;;;;0.17;100.00;93076.78;2097949;28;20119;-80
2022/03/12 04:30:11;;;;;;;18.63;11.77;;;;;;;0.22;100.00;93086.25;2106949;28;20106;-78
2022/03/12 04:31:14;;;;;;;17.55;12.30;;;;;;;0.19;100.00;93085.09;2106365;28;20412;-78
2022/03/12 04:32:16;;;;;;;19.25;12.95;;;;;;;0.19;100.00;93079.09;2114730;28;20031;-78
2022/03/12 04:33:21;;;;;;;17.02;11.68;;;;;;;0.19;100.00;93094.84;2106307;28;20028;-78
2022/03/12 04:34:22;;;;;;;16.58;12.27;;;;;;;0.13;100.00;93097.03;2105250;28;20422;-79
2022/03/12 04:35:23;;;;;;;18.55;12.80;;;;;;;0.17;100.00;93100.44;2088893;28;20028;-80
2022/03/12 04:36:25;;;;;;;22.67;12.85;;;;;;;0.14;100.00;93097.78;2097418;28;20024;-78
2022/03/12 04:37:26;;;;;;;17.67;13.77;;;;;;;0.17;100.00;93089.16;2081707;28;20049;-80
2022/03/12 04:38:27;;;;;;;20.92;13.88;;;;;;;0.18;100.00;93085.44;2089629;28;20029;-79
2022/03/12 04:39:28;;;;;;;21.55;15.52;;;;;;;0.25;100.00;93086.31;2081199;28;20431;-80
2022/03/12 04:40:30;;;;;;;22.70;15.18;;;;;;;0.46;100.00;93093.78;2089568;28;20083;-78
2022/03/12 04:41:36;;;;;;;22.38;14.48;;;;;;;0.41;100.00;93091.47;2089387;28;20017;-79
2022/03/12 04:42:38;;;;;;;20.77;13.85;;;;;;;0.33;99.48;93089.06;2085913;28;20028;-79
2022/03/12 04:43:40;;;;;;;21.20;14.00;;;;;;;0.26;99.90;93094.94;2081518;28;20342;-78
2022/03/12 04:44:41;;;;;;;23.25;13.88;;;;;;;0.33;100.00;93096.94;2092658;28;20036;-78
2022/03/12 04:45:44;;;;;;;17.50;13.07;;;;;;;0.21;100.00;93097.88;2097621;28;20111;-78
2022/03/12 04:46:45;;;;;;;19.85;13.25;;;;;;;0.17;100.00;93099.69;2094433;28;20071;-78
2022/03/12 04:47:48;;;;;;;19.35;13.07;;;;;;;0.16;100.00;93100.81;2089224;28;20028;-79
2022/03/12 04:48:50;;;;;;;18.08;13.50;;;;;;;0.12;100.00;93106.00;2089368;28;20082;-79